Time;durP1;ratioP1;P1;durP2;ratioP2;P2;SDS_P1;SDS_P2;PMS_P1;PMS_P2;Temp;Humidity;BMP_temperature;BMP_pressure;BME280_temperature;BME280_humidity;BME280_pressure;Samples;Min_cycle;Max_cycle;Signal;HPM_P1;HPM_P2
2022/12/29 00:00:21;;;;;;;9.98;6.00;;;19.50;36.50;;;;;;5074265;28;20054;-69
2022/12/29 00:02:48;;;;;;;7.78;5.82;;;19.60;36.60;;;;;;5075219;28;20041;-69
2022/12/29 00:05:16;;;;;;;9.23;6.15;;;19.60;36.60;;;;;;5074664;28;20098;-69
2022/12/29 00:07:43;;;;;;;9.48;5.97;;;19.50;36.50;;;;;;5074671;28;20040;-69
2022/12/29 00:10:10;;;;;;;8.57;6.15;;;19.50;36.60;;;;;;5073872;28;20169;-69
2022/12/29 00:15:37;;;;;;;8.38;6.70;;;19.60;36.60;;;;;;5073471;28;20408;-69
2022/12/29 00:18:04;;;;;;;8.95;6.28;;;19.50;36.60;;;;;;5073604;28;20048;-69
2022/12/29 00:44:04;;;;;;;10.07;6.00;;;19.50;36.60;;;;;;5074517;28;20045;-69
2022/12/29 00:45:44;;;;;;;8.18;6.18;;;19.50;36.60;;;;;;5074306;28;20052;-69
2022/12/29 00:48:11;;;;;;;8.55;5.38;;;19.50;36.60;;;;;;5073712;28;20098;-69
2022/12/29 00:50:38;;;;;;;7.35;5.45;;;19.50;36.60;;;;;;5060323;28;20049;-69
2022/12/29 00:53:05;;;;;;;8.50;5.70;;;19.50;36.60;;;;;;5053320;28;20058;-69
2022/12/29 00:55:37;;;;;;;7.78;5.60;;;19.50;36.70;;;;;;5053683;28;20056;-69
2022/12/29 00:58:04;;;;;;;6.78;5.50;;;19.50;36.70;;;;;;5053239;28;20425;-69
2022/12/29 01:00:32;;;;;;;7.72;5.32;;;19.50;36.60;;;;;;5053554;28;20052;-69
2022/12/29 01:03:00;;;;;;;8.10;5.65;;;19.50;36.70;;;;;;5035900;28;20128;-69
2022/12/29 01:05:27;;;;;;;8.35;6.05;;;19.50;36.70;;;;;;5053043;28;20136;-69
2022/12/29 01:07:55;;;;;;;7.38;5.10;;;19.50;36.70;;;;;;5053459;28;20476;-68
2022/12/29 01:10:22;;;;;;;6.32;4.78;;;19.50;36.70;;;;;;5053764;28;20133;-68
2022/12/29 01:12:50;;;;;;;8.27;6.22;;;19.50;36.70;;;;;;5052444;28;20063;-69
2022/12/29 01:15:17;;;;;;;7.22;5.38;;;19.50;36.70;;;;;;5053137;28;20048;-68
2022/12/29 01:17:44;;;;;;;8.73;5.50;;;19.50;36.70;;;;;;5052790;28;20382;-69
2022/12/29 01:20:11;;;;;;;7.10;4.82;;;19.40;36.70;;;;;;5035445;28;20415;-68
2022/12/29 01:22:42;;;;;;;6.30;4.93;;;19.50;36.70;;;;;;5053742;28;20053;-68
2022/12/29 01:25:09;;;;;;;6.93;5.15;;;19.40;36.70;;;;;;5052983;28;20084;-69
2022/12/29 01:27:36;;;;;;;6.95;4.82;;;19.40;36.70;;;;;;5053074;28;20059;-69
2022/12/29 01:30:04;;;;;;;6.65;4.70;;;19.40;36.70;;;;;;5052983;28;20048;-69
2022/12/29 01:32:31;;;;;;;7.95;5.15;;;19.40;36.70;;;;;;5052656;28;20055;-69
2022/12/29 01:34:58;;;;;;;6.40;4.65;;;19.40;36.70;;;;;;5035451;28;20447;-69
2022/12/29 01:37:25;;;;;;;7.70;5.57;;;19.40;36.70;;;;;;5053523;28;20080;-68
2022/12/29 01:39:52;;;;;;;6.65;4.80;;;19.40;36.70;;;;;;5053409;28;20053;-69
2022/12/29 01:42:24;;;;;;;6.63;5.03;;;19.40;36.70;;;;;;5052822;28;20083;-69
2022/12/29 01:44:57;;;;;;;7.55;4.93;;;19.40;36.80;;;;;;5052938;28;20049;-69
2022/12/29 01:47:32;;;;;;;6.65;5.00;;;19.40;36.80;;;;;;5052861;28;20129;-69
2022/12/29 01:50:05;;;;;;;6.53;4.63;;;19.40;36.80;;;;;;5052955;28;20659;-69
2022/12/29 01:52:35;;;;;;;7.68;5.22;;;19.40;36.80;;;;;;5034412;28;20057;-69
2022/12/29 01:55:04;;;;;;;6.65;4.88;;;19.40;36.80;;;;;;5052777;28;20389;-68
2022/12/29 01:57:38;;;;;;;7.20;4.88;;;19.40;36.80;;;;;;5052415;28;20052;-69
2022/12/29 02:00:10;;;;;;;4.60;4.10;;;19.40;36.80;;;;;;5053189;28;20053;-69
2022/12/29 02:02:38;;;;;;;7.55;5.13;;;19.40;36.80;;;;;;5035282;28;20049;-69
2022/12/29 02:05:12;;;;;;;6.97;4.70;;;19.40;36.80;;;;;;5052252;28;20071;-69
2022/12/29 02:07:40;;;;;;;6.72;4.65;;;19.40;36.80;;;;;;5052931;28;20136;-69
2022/12/29 02:10:07;;;;;;;5.70;4.53;;;19.40;36.80;;;;;;5053104;28;20045;-68
2022/12/29 02:12:35;;;;;;;6.75;4.70;;;19.40;36.80;;;;;;5052607;28;20118;-69
2022/12/29 02:15:03;;;;;;;5.65;3.88;;;19.40;36.80;;;;;;5054141;28;20045;-68
2022/12/29 02:18:02;;;;;;;5.20;3.97;;;19.40;36.90;;;;;;5056255;28;20057;-68
2022/12/29 02:21:09;;;;;;;5.82;4.55;;;19.40;36.90;;;;;;5056913;28;20397;-68
2022/12/29 02:24:16;;;;;;;5.43;4.13;;;19.40;36.90;;;;;;5056121;28;20049;-69
2022/12/29 02:27:24;;;;;;;5.60;4.18;;;19.40;36.90;;;;;;5056658;28;20092;-68
2022/12/29 02:30:12;;;;;;;5.97;3.95;;;19.40;36.90;;;;;;5025351;28;20476;-68
2022/12/29 02:33:04;;;;;;;5.35;4.30;;;19.40;36.90;;;;;;5056882;28;20056;-69
2022/12/29 02:35:49;;;;;;;5.15;4.15;;;19.40;36.90;;;;;;5055950;28;20049;-68
2022/12/29 02:38:44;;;;;;;5.38;3.90;;;19.40;36.90;;;;;;5040572;28;20092;-68
2022/12/29 02:41:37;;;;;;;4.35;3.80;;;19.40;36.90;;;;;;5055585;28;20479;-68
2022/12/29 02:44:28;;;;;;;6.97;4.22;;;19.40;36.90;;;;;;5041923;28;20045;-69
2022/12/29 02:47:23;;;;;;;4.32;3.92;;;19.40;36.90;;;;;;5056216;28;20053;-69
2022/12/29 02:50:15;;;;;;;4.40;3.85;;;19.40;36.90;;;;;;5055908;28;20040;-69
2022/12/29 02:52:58;;;;;;;5.28;4.10;;;19.30;36.90;;;;;;5055650;28;20416;-69
2022/12/29 02:55:26;;;;;;;6.53;4.65;;;19.40;36.90;;;;;;5055568;28;20111;-68
2022/12/29 02:58:21;;;;;;;5.47;4.03;;;19.40;36.90;;;;;;5056317;28;20132;-69
2022/12/29 03:01:07;;;;;;;6.43;4.18;;;19.40;36.90;;;;;;5056417;28;20083;-69
2022/12/29 03:04:02;;;;;;;5.07;3.58;;;19.40;36.90;;;;;;5037719;28;20055;-68
2022/12/29 03:06:54;;;;;;;5.82;3.95;;;19.40;36.90;;;;;;5056144;28;20136;-68
2022/12/29 03:09:42;;;;;;;5.45;3.72;;;19.40;36.90;;;;;;5041648;28;20048;-68
2022/12/29 03:18:34;;;;;;;4.07;3.67;;;19.30;36.90;;;;;;5055770;28;20084;-68
2022/12/29 03:21:11;;;;;;;4.82;3.58;;;19.30;36.90;;;;;;5055157;28;20049;-68
2022/12/29 03:23:41;;;;;;;4.75;3.58;;;19.40;36.90;;;;;;5055921;28;20558;-69
2022/12/29 03:26:12;;;;;;;4.78;3.40;;;19.40;37.00;;;;;;5054679;28;20135;-69
2022/12/29 03:28:46;;;;;;;5.20;3.63;;;19.30;36.90;;;;;;5037808;28;20045;-68
2022/12/29 03:31:14;;;;;;;4.90;3.80;;;19.30;36.90;;;;;;5055144;28;20048;-69
2022/12/29 03:33:43;;;;;;;6.75;3.97;;;19.30;36.90;;;;;;5054806;28;20048;-68
2022/12/29 03:36:17;;;;;;;4.75;3.65;;;19.30;37.50;;;;;;5054626;28;20124;-69
2022/12/29 03:38:51;;;;;;;5.68;4.03;;;19.30;36.90;;;;;;5054149;28;20073;-69
2022/12/29 03:41:23;;;;;;;5.20;3.67;;;19.30;36.90;;;;;;5037993;28;20049;-69
2022/12/29 03:43:50;;;;;;;4.40;3.70;;;19.30;36.90;;;;;;5055437;28;20136;-69
2022/12/29 03:46:18;;;;;;;4.68;3.67;;;19.30;36.90;;;;;;5054564;28;20144;-69
2022/12/29 03:48:45;;;;;;;4.43;3.33;;;19.30;37.00;;;;;;5055457;28;20052;-69
2022/12/29 03:51:12;;;;;;;4.15;3.50;;;19.30;37.00;;;;;;5055339;28;20052;-68
2022/12/29 03:53:40;;;;;;;5.93;3.97;;;19.30;37.00;;;;;;5054939;28;20094;-69
2022/12/29 03:56:07;;;;;;;4.18;3.38;;;19.30;37.00;;;;;;5037440;28;20041;-68
2022/12/29 03:58:34;;;;;;;4.85;3.55;;;19.30;36.90;;;;;;5054236;28;20049;-69
2022/12/29 04:01:02;;;;;;;4.32;3.42;;;19.30;37.00;;;;;;5054984;28;20041;-69
2022/12/29 04:03:29;;;;;;;5.75;3.10;;;19.30;37.00;;;;;;5054229;28;20409;-68
2022/12/29 04:05:56;;;;;;;4.68;3.42;;;19.30;37.00;;;;;;5055140;28;20170;-69
2022/12/29 04:08:23;;;;;;;4.53;3.78;;;19.30;37.00;;;;;;5054742;28;20060;-68
2022/12/29 04:10:50;;;;;;;3.58;2.95;;;19.30;37.00;;;;;;5054096;28;20136;-68
2022/12/29 04:13:17;;;;;;;4.90;3.55;;;19.30;37.00;;;;;;5054312;28;20056;-69
2022/12/29 04:15:45;;;;;;;5.25;3.72;;;19.30;37.00;;;;;;5054659;28;20109;-68
2022/12/29 04:18:13;;;;;;;4.15;3.28;;;19.30;37.00;;;;;;5054503;28;20132;-68
2022/12/29 04:21:00;;;;;;;4.82;3.38;;;19.30;37.00;;;;;;5037210;28;20166;-68
2022/12/29 04:23:28;;;;;;;4.97;3.53;;;19.30;37.00;;;;;;5054436;28;20140;-68
2022/12/29 04:25:55;;;;;;;3.72;3.30;;;19.30;37.00;;;;;;5036824;28;20583;-70
2022/12/29 04:28:22;;;;;;;4.70;3.80;;;19.30;37.00;;;;;;5054237;28;20568;-69
2022/12/29 04:30:50;;;;;;;3.40;3.10;;;19.30;37.00;;;;;;5037096;28;20136;-69
2022/12/29 04:33:17;;;;;;;4.72;3.17;;;19.30;37.00;;;;;;5053979;28;20464;-69
2022/12/29 04:35:47;;;;;;;3.42;3.10;;;19.30;37.00;;;;;;5054580;28;20053;-69
2022/12/29 04:38:15;;;;;;;4.47;3.35;;;19.30;37.00;;;;;;5053809;28;20056;-69
2022/12/29 04:40:43;;;;;;;4.63;3.67;;;19.30;37.00;;;;;;5054187;28;20519;-69
2022/12/29 04:43:11;;;;;;;4.95;3.35;;;19.30;37.00;;;;;;5053931;28;20049;-69
2022/12/29 04:45:43;;;;;;;5.05;3.20;;;19.30;37.10;;;;;;5054076;28;20049;-69
2022/12/29 04:48:10;;;;;;;5.05;3.47;;;19.30;37.00;;;;;;5054176;28;20415;-69
2022/12/29 04:50:37;;;;;;;3.80;3.03;;;19.30;37.00;;;;;;5036521;28;20140;-69
2022/12/29 04:53:05;;;;;;;3.97;3.13;;;19.30;37.00;;;;;;5053221;28;20067;-69
2022/12/29 04:55:32;;;;;;;4.15;3.08;;;19.30;37.00;;;;;;5054287;28;20052;-69
2022/12/29 04:57:59;;;;;;;5.95;3.70;;;19.30;37.00;;;;;;5053849;28;20063;-71
2022/12/29 05:00:26;;;;;;;4.40;3.35;;;19.30;37.00;;;;;;5053711;28;20045;-69
2022/12/29 05:02:53;;;;;;;3.55;3.20;;;19.30;37.00;;;;;;5058042;28;20131;-69
2022/12/29 05:05:21;;;;;;;3.35;2.58;;;19.30;37.00;;;;;;5073627;28;20132;-69
2022/12/29 05:07:48;;;;;;;3.50;2.83;;;19.30;37.00;;;;;;5073513;28;20062;-69
2022/12/29 05:10:15;;;;;;;3.95;3.15;;;19.30;37.00;;;;;;5073015;28;20045;-69
2022/12/29 05:12:44;;;;;;;3.70;2.70;;;19.30;37.00;;;;;;5073007;28;20480;-69
2022/12/29 05:15:11;;;;;;;4.22;3.25;;;19.20;36.90;;;;;;5073806;28;20165;-69
2022/12/29 05:17:38;;;;;;;4.28;3.13;;;19.30;37.00;;;;;;5073260;28;20072;-69
2022/12/29 05:20:06;;;;;;;3.40;2.85;;;19.30;37.00;;;;;;5073547;28;20127;-69
2022/12/29 05:22:33;;;;;;;4.72;3.40;;;19.30;37.00;;;;;;5073741;28;20052;-69
2022/12/29 05:25:00;;;;;;;5.25;3.65;;;19.30;37.00;;;;;;5073035;28;20052;-69
2022/12/29 05:27:28;;;;;;;3.90;3.20;;;19.30;37.00;;;;;;5073331;28;20083;-69
2022/12/29 05:29:55;;;;;;;4.03;2.80;;;19.30;37.00;;;;;;5073368;28;20079;-69
2022/12/29 05:32:22;;;;;;;3.45;2.50;;;19.20;37.00;;;;;;5072815;28;20059;-69
2022/12/29 05:34:49;;;;;;;4.55;3.30;;;19.30;37.10;;;;;;5073191;28;20048;-69
2022/12/29 05:37:16;;;;;;;4.68;3.33;;;19.30;37.00;;;;;;5073669;28;20051;-69
2022/12/29 05:39:44;;;;;;;4.50;3.65;;;19.30;36.90;;;;;;5073170;28;20078;-69
2022/12/29 05:42:11;;;;;;;4.00;3.15;;;19.20;36.70;;;;;;5055658;28;20467;-69
2022/12/29 05:44:38;;;;;;;4.35;3.50;;;19.20;36.70;;;;;;5073371;28;20052;-69
2022/12/29 05:47:05;;;;;;;5.05;3.72;;;19.20;36.80;;;;;;5073001;28;20048;-69
2022/12/29 05:49:32;;;;;;;4.80;3.67;;;19.20;36.80;;;;;;5072984;28;20051;-69
2022/12/29 05:51:59;;;;;;;4.97;3.58;;;19.20;36.80;;;;;;5073318;28;20048;-69
2022/12/29 05:54:26;;;;;;;5.10;3.92;;;19.20;36.80;;;;;;5073359;28;20052;-69
2022/12/29 05:56:53;;;;;;;3.45;2.95;;;19.20;36.70;;;;;;5072995;28;20399;-69
2022/12/29 05:59:21;;;;;;;4.50;3.40;;;19.20;36.60;;;;;;5072969;28;20044;-69
2022/12/29 06:01:48;;;;;;;4.70;3.63;;;19.20;36.60;;;;;;5072874;28;20143;-70
2022/12/29 06:04:15;;;;;;;5.60;3.55;;;19.20;36.50;;;;;;5073232;28;20340;-69
2022/12/29 06:06:43;;;;;;;4.60;3.65;;;19.30;36.50;;;;;;5064480;28;20056;-69
2022/12/29 06:09:10;;;;;;;4.40;3.40;;;19.30;36.50;;;;;;5053167;28;20048;-69
2022/12/29 06:11:37;;;;;;;4.07;3.65;;;19.30;36.40;;;;;;5052760;28;20053;-68
2022/12/29 06:14:04;;;;;;;4.57;3.85;;;19.30;36.40;;;;;;5052796;28;20079;-68
2022/12/29 06:16:32;;;;;;;8.55;4.22;;;19.40;36.40;;;;;;5035040;28;20128;-68
2022/12/29 06:18:59;;;;;;;4.85;3.90;;;19.40;36.30;;;;;;5052766;28;20060;-68
2022/12/29 06:21:26;;;;;;;5.88;4.03;;;19.40;36.30;;;;;;5052767;28;20049;-68
2022/12/29 06:23:53;;;;;;;5.15;3.63;;;19.40;36.20;;;;;;5052125;28;20055;-68
2022/12/29 06:26:20;;;;;;;5.70;4.10;;;19.40;36.20;;;;;;5053015;28;20045;-69
2022/12/29 06:28:47;;;;;;;4.40;3.47;;;19.50;36.10;;;;;;5052919;28;20416;-69
2022/12/29 06:31:14;;;;;;;5.57;3.95;;;19.50;36.10;;;;;;5051581;28;20056;-70
2022/12/29 06:33:41;;;;;;;4.65;3.80;;;19.50;36.10;;;;;;5052288;28;20118;-68
2022/12/29 06:36:17;;;;;;;5.00;3.78;;;19.50;36.00;;;;;;5051846;28;20041;-69
2022/12/29 06:38:44;;;;;;;6.78;4.20;;;19.50;36.00;;;;;;5051568;28;20041;-69
2022/12/29 06:41:11;;;;;;;6.55;4.00;;;19.50;35.90;;;;;;5050588;28;20048;-69
2022/12/29 06:43:38;;;;;;;5.13;3.42;;;19.60;35.90;;;;;;5052353;28;20132;-69
2022/12/29 06:46:06;;;;;;;4.43;3.55;;;19.60;35.90;;;;;;5052685;28;20076;-68
2022/12/29 06:48:33;;;;;;;5.95;4.00;;;19.60;35.90;;;;;;5051661;28;20060;-68
2022/12/29 06:51:00;;;;;;;5.30;3.58;;;19.60;35.80;;;;;;5052450;28;20049;-68
2022/12/29 06:53:27;;;;;;;5.97;4.50;;;19.70;35.80;;;;;;5051803;28;20041;-68
2022/12/29 06:55:56;;;;;;;5.07;3.95;;;19.70;35.70;;;;;;5059970;28;20472;-68
2022/12/29 06:58:23;;;;;;;4.80;4.03;;;19.70;35.70;;;;;;5071835;28;20464;-69
2022/12/29 07:00:50;;;;;;;4.53;3.45;;;19.80;35.60;;;;;;5073233;28;20048;-69
2022/12/29 07:03:18;;;;;;;4.10;3.58;;;19.80;35.60;;;;;;5075856;28;20059;-69
2022/12/29 07:05:45;;;;;;;4.32;3.38;;;19.80;35.50;;;;;;5075710;28;20049;-69
2022/12/29 07:08:12;;;;;;;5.22;3.85;;;19.90;35.50;;;;;;5075122;28;20140;-68
2022/12/29 07:10:40;;;;;;;5.88;3.83;;;19.90;35.40;;;;;;5075198;28;20044;-68
2022/12/29 07:13:07;;;;;;;6.43;4.20;;;19.90;35.30;;;;;;5075693;28;20053;-69
2022/12/29 07:15:36;;;;;;;5.65;3.80;;;20.00;35.30;;;;;;5075729;28;20045;-68
2022/12/29 07:18:04;;;;;;;4.68;3.95;;;20.00;35.30;;;;;;5075907;28;20076;-69
2022/12/29 07:20:31;;;;;;;5.25;3.90;;;20.00;35.20;;;;;;5068884;28;20540;-69
2022/12/29 07:22:59;;;;;;;5.60;4.03;;;20.10;35.20;;;;;;5077115;28;20518;-69
2022/12/29 07:25:26;;;;;;;5.38;4.03;;;20.10;35.10;;;;;;5081313;28;20050;-70
2022/12/29 07:27:53;;;;;;;4.43;4.03;;;20.10;35.10;;;;;;5075816;28;20070;-69
2022/12/29 07:30:21;;;;;;;6.00;4.18;;;20.10;35.00;;;;;;5075297;28;20080;-69
2022/12/29 07:32:48;;;;;;;4.30;3.58;;;20.10;35.00;;;;;;5073493;28;20057;-69
2022/12/29 07:35:15;;;;;;;6.57;3.95;;;20.20;35.00;;;;;;5070150;28;20040;-69
2022/12/29 07:37:43;;;;;;;4.95;4.10;;;20.20;34.90;;;;;;5071469;28;20059;-69
2022/12/29 07:40:10;;;;;;;5.10;3.92;;;20.20;34.90;;;;;;5066341;28;20554;-68
2022/12/29 07:42:38;;;;;;;4.95;4.05;;;20.20;34.90;;;;;;5059932;28;20057;-69
2022/12/29 07:45:05;;;;;;;5.05;4.20;;;20.30;34.90;;;;;;5069383;28;20040;-69
2022/12/29 07:47:32;;;;;;;5.82;4.07;;;20.30;34.80;;;;;;5079317;28;20088;-69
2022/12/29 07:49:59;;;;;;;5.50;3.85;;;20.30;34.80;;;;;;5081201;28;20054;-68
2022/12/29 07:52:27;;;;;;;5.30;4.63;;;20.40;34.80;;;;;;5075776;28;20400;-70
2022/12/29 07:54:54;;;;;;;5.90;4.03;;;20.40;34.70;;;;;;5049589;28;20378;-69
2022/12/29 07:57:21;;;;;;;6.25;4.35;;;20.50;34.70;;;;;;5062521;28;20816;-68
2022/12/29 07:59:57;;;;;;;5.22;4.07;;;20.50;34.70;;;;;;5062322;28;20497;-69
2022/12/29 08:02:25;;;;;;;4.82;4.18;;;20.50;34.60;;;;;;5063038;28;20055;-68
2022/12/29 08:04:53;;;;;;;7.60;4.63;;;20.50;34.60;;;;;;5061610;28;20047;-69
2022/12/29 08:07:20;;;;;;;5.25;4.40;;;20.60;34.50;;;;;;5059453;28;20386;-68
2022/12/29 08:09:47;;;;;;;7.90;4.78;;;20.60;34.50;;;;;;5074035;28;20059;-69
2022/12/29 08:12:15;;;;;;;5.40;4.25;;;20.60;34.40;;;;;;5072845;28;20091;-68
2022/12/29 08:14:42;;;;;;;6.22;4.20;;;20.70;34.40;;;;;;5070627;28;20048;-69
2022/12/29 08:17:09;;;;;;;5.72;4.05;;;20.70;34.40;;;;;;5062129;28;20066;-69
2022/12/29 08:19:37;;;;;;;6.97;4.78;;;20.70;34.30;;;;;;5072780;28;20457;-69
2022/12/29 08:22:04;;;;;;;7.70;5.28;;;20.70;34.30;;;;;;5075623;28;20452;-69
2022/12/29 08:24:31;;;;;;;6.43;4.82;;;20.70;34.30;;;;;;5091264;28;20044;-69
2022/12/29 08:26:58;;;;;;;5.97;4.88;;;20.80;34.30;;;;;;5073329;28;20048;-69
2022/12/29 08:29:38;;;;;;;7.97;5.32;;;20.80;34.20;;;;;;5074498;28;20056;-69
2022/12/29 08:32:06;;;;;;;6.57;5.07;;;20.80;34.20;;;;;;5056810;28;20124;-68
2022/12/29 08:34:33;;;;;;;6.50;5.10;;;20.90;34.20;;;;;;5048533;28;20053;-68
2022/12/29 08:37:00;;;;;;;6.43;4.93;;;20.90;34.20;;;;;;5074538;28;20044;-69
2022/12/29 08:39:27;;;;;;;6.10;4.65;;;20.90;34.10;;;;;;5073894;28;20127;-69
2022/12/29 08:41:54;;;;;;;5.45;4.55;;;21.00;34.10;;;;;;5073099;28;20054;-69
2022/12/29 08:44:22;;;;;;;7.32;4.90;;;21.00;34.10;;;;;;5071124;28;20420;-68
2022/12/29 08:46:49;;;;;;;6.15;5.05;;;21.10;34.00;;;;;;5034915;28;20047;-69
2022/12/29 08:49:16;;;;;;;7.43;5.32;;;21.10;33.90;;;;;;5042790;28;20044;-68
2022/12/29 08:51:43;;;;;;;5.80;4.90;;;21.10;33.90;;;;;;5065902;28;20056;-69
2022/12/29 08:54:10;;;;;;;7.07;5.82;;;21.20;34.00;;;;;;5066910;28;20131;-69
2022/12/29 08:56:37;;;;;;;6.25;4.93;;;21.20;33.90;;;;;;5064168;28;20083;-71
2022/12/29 08:59:04;;;;;;;7.15;4.90;;;21.20;33.90;;;;;;5063453;28;20040;-69
2022/12/29 09:01:33;;;;;;;7.57;5.35;;;21.30;33.90;;;;;;5063233;28;20456;-69
2022/12/29 09:04:00;;;;;;;8.45;5.30;;;21.30;33.80;;;;;;5060767;28;20075;-69
2022/12/29 09:06:45;;;;;;;6.40;4.65;;;21.30;33.80;;;;;;5052700;28;20127;-69
2022/12/29 09:09:12;;;;;;;6.30;4.75;;;21.40;33.80;;;;;;5067422;28;20082;-69
2022/12/29 09:11:41;;;;;;;5.45;4.65;;;21.40;33.80;;;;;;5053396;28;20045;-71
2022/12/29 09:14:08;;;;;;;8.23;5.75;;;21.40;33.70;;;;;;5058602;28;20057;-69
2022/12/29 09:16:35;;;;;;;6.57;4.82;;;21.50;33.70;;;;;;5059069;28;20048;-69
2022/12/29 09:19:03;;;;;;;6.40;5.10;;;21.50;33.70;;;;;;5052783;28;20079;-69
2022/12/29 09:21:31;;;;;;;6.75;5.35;;;21.50;33.70;;;;;;5052707;28;20132;-69
2022/12/29 09:23:58;;;;;;;7.72;5.88;;;21.60;33.60;;;;;;5053664;28;20053;-69
2022/12/29 09:26:25;;;;;;;7.13;5.15;;;21.60;33.60;;;;;;5064871;28;20040;-69
2022/12/29 09:28:52;;;;;;;7.05;5.38;;;21.70;33.60;;;;;;5060030;28;20048;-69
2022/12/29 09:31:19;;;;;;;8.48;5.78;;;21.70;33.50;;;;;;5061522;28;20128;-69
2022/12/29 09:33:46;;;;;;;7.68;5.25;;;21.70;33.40;;;;;;5050597;28;20045;-69
2022/12/29 09:36:14;;;;;;;5.53;4.30;;;21.80;33.50;;;;;;5063093;28;20033;-69
2022/12/29 09:38:41;;;;;;;6.50;4.88;;;21.80;33.50;;;;;;5072154;28;20041;-69
2022/12/29 09:41:34;;;;;;;6.90;5.15;;;21.80;33.40;;;;;;5070412;28;20378;-69
2022/12/29 09:44:12;;;;;;;6.43;4.82;;;21.80;33.40;;;;;;5067583;28;20480;-69
2022/12/29 09:46:48;;;;;;;5.03;4.25;;;21.80;33.40;;;;;;5068038;28;20076;-69
2022/12/29 09:49:40;;;;;;;6.03;4.88;;;21.80;33.40;;;;;;5068208;28;20428;-69
2022/12/29 09:52:20;;;;;;;5.20;4.13;;;21.90;33.40;;;;;;5056102;28;20052;-69
2022/12/29 09:55:08;;;;;;;6.37;4.63;;;21.90;33.40;;;;;;5050011;28;20047;-70
2022/12/29 09:58:02;;;;;;;9.23;4.88;;;21.90;33.40;;;;;;5063700;28;20056;-69
2022/12/29 10:01:00;;;;;;;5.40;4.20;;;21.90;33.40;;;;;;5070724;28;20044;-69
2022/12/29 10:03:49;;;;;;;7.22;4.80;;;22.00;33.40;;;;;;5059921;28;20055;-70
2022/12/29 10:06:31;;;;;;;5.65;4.57;;;22.00;33.40;;;;;;5062806;28;20041;-69
2022/12/29 10:09:22;;;;;;;6.90;4.80;;;22.00;33.40;;;;;;5070513;28;20059;-69
2022/12/29 10:12:19;;;;;;;7.07;4.68;;;22.00;33.40;;;;;;5071451;28;20051;-69
2022/12/29 10:15:02;;;;;;;6.95;4.55;;;22.00;33.40;;;;;;5066056;28;20131;-69
2022/12/29 10:18:00;;;;;;;6.85;5.35;;;22.10;33.50;;;;;;5055322;28;20403;-69
2022/12/29 10:20:48;;;;;;;5.97;5.28;;;22.10;33.40;;;;;;5072544;28;20102;-69
2022/12/29 10:23:28;;;;;;;5.97;5.05;;;22.10;33.40;;;;;;5054682;28;20447;-69
2022/12/29 10:25:58;;;;;;;7.72;5.18;;;22.10;33.40;;;;;;5092446;28;20545;-69
2022/12/29 10:28:43;;;;;;;9.05;5.20;;;22.10;33.40;;;;;;5092784;28;20111;-69
2022/12/29 10:31:20;;;;;;;7.07;4.95;;;22.10;33.40;;;;;;5076880;28;20084;-69
2022/12/29 10:33:53;;;;;;;6.00;5.00;;;22.10;33.40;;;;;;5070955;28;20055;-69
2022/12/29 10:36:43;;;;;;;6.05;4.63;;;22.10;33.40;;;;;;5073018;28;20127;-69
2022/12/29 10:39:23;;;;;;;7.90;5.55;;;22.10;33.40;;;;;;5070588;28;20052;-69
2022/12/29 10:42:11;;;;;;;9.50;5.57;;;22.10;33.40;;;;;;5069896;28;20055;-69
2022/12/29 10:44:38;;;;;;;5.97;4.80;;;22.20;33.50;;;;;;5058380;28;20099;-69
2022/12/29 10:47:11;;;;;;;7.72;5.47;;;22.20;33.50;;;;;;5073897;28;20048;-69
2022/12/29 10:49:42;;;;;;;6.50;5.15;;;22.20;33.50;;;;;;5070991;28;20048;-69
2022/12/29 10:52:11;;;;;;;6.45;4.93;;;22.20;33.50;;;;;;5067363;28;20047;-69
2022/12/29 10:54:46;;;;;;;6.43;4.60;;;22.20;33.50;;;;;;5067543;28;20052;-69
2022/12/29 10:57:35;;;;;;;6.30;5.03;;;22.20;33.50;;;;;;5072923;28;20044;-69
2022/12/29 11:00:16;;;;;;;4.85;4.05;;;22.20;33.50;;;;;;5070543;28;20079;-69
2022/12/29 11:03:08;;;;;;;6.20;4.55;;;22.20;34.10;;;;;;5067239;28;20059;-69
2022/12/29 11:05:59;;;;;;;6.22;4.90;;;22.20;33.50;;;;;;5070569;28;20412;-69
2022/12/29 11:08:32;;;;;;;6.93;4.90;;;22.20;33.50;;;;;;5065209;28;20047;-69
2022/12/29 11:11:05;;;;;;;6.65;4.88;;;22.20;33.50;;;;;;5068350;28;20041;-70
2022/12/29 11:13:35;;;;;;;8.98;5.15;;;22.30;33.60;;;;;;5067423;28;20501;-69
2022/12/29 11:16:05;;;;;;;5.90;4.65;;;22.30;33.60;;;;;;5050074;28;20045;-70
2022/12/29 11:18:42;;;;;;;6.53;5.38;;;22.20;33.60;;;;;;5070913;28;20059;-69
2022/12/29 11:21:33;;;;;;;8.00;4.90;;;22.20;33.50;;;;;;5075811;28;20420;-69
2022/12/29 11:24:04;;;;;;;6.75;5.05;;;22.20;33.60;;;;;;5079644;28;20131;-70
2022/12/29 11:26:33;;;;;;;7.97;4.57;;;22.20;33.60;;;;;;5073347;28;20452;-70
2022/12/29 11:29:19;;;;;;;4.43;4.03;;;22.20;33.60;;;;;;5072345;28;20443;-69
2022/12/29 11:31:49;;;;;;;7.38;4.50;;;22.20;33.70;;;;;;5074552;28;20123;-70
2022/12/29 11:34:34;;;;;;;5.38;4.28;;;22.20;33.70;;;;;;5069576;28;20087;-69
2022/12/29 11:37:10;;;;;;;4.65;3.95;;;22.30;33.80;;;;;;5068941;28;20132;-69
2022/12/29 11:39:56;;;;;;;8.10;4.68;;;22.20;33.70;;;;;;5065558;28;20123;-70
2022/12/29 11:42:38;;;;;;;4.72;4.10;;;22.30;33.80;;;;;;5065605;28;20496;-69
2022/12/29 11:45:17;;;;;;;4.78;3.95;;;22.30;34.40;;;;;;5071518;28;20139;-70
2022/12/29 11:47:49;;;;;;;5.85;4.43;;;22.20;33.80;;;;;;5067724;28;20052;-69
2022/12/29 11:50:30;;;;;;;5.63;4.40;;;22.30;33.90;;;;;;5067156;28;20756;-70
2022/12/29 11:53:13;;;;;;;4.75;4.22;;;22.20;33.80;;;;;;5065145;28;20048;-70
2022/12/29 11:55:50;;;;;;;5.28;4.22;;;22.30;33.90;;;;;;5069782;28;20587;-70
2022/12/29 11:58:17;;;;;;;4.65;4.20;;;22.20;33.90;;;;;;5070942;28;20041;-70
2022/12/29 12:00:47;;;;;;;5.30;3.97;;;22.30;34.00;;;;;;5060855;28;20124;-69
2022/12/29 12:03:21;;;;;;;4.72;3.63;;;22.30;34.00;;;;;;5055024;28;20120;-70
2022/12/29 12:05:57;;;;;;;4.20;3.58;;;22.30;34.00;;;;;;5054682;28;20135;-70
2022/12/29 12:08:48;;;;;;;5.63;4.13;;;22.30;34.60;;;;;;5054536;28;20053;-69
2022/12/29 12:11:23;;;;;;;5.15;3.72;;;22.30;34.00;;;;;;5054939;28;20051;-70
2022/12/29 12:14:00;;;;;;;4.10;3.65;;;22.30;34.10;;;;;;5053721;28;20053;-69
2022/12/29 12:16:40;;;;;;;5.00;4.03;;;22.30;34.10;;;;;;5060145;28;20049;-69
2022/12/29 12:19:30;;;;;;;4.18;3.60;;;22.30;34.10;;;;;;5064446;28;20105;-69
2022/12/29 12:22:13;;;;;;;4.43;3.95;;;22.30;34.10;;;;;;5073477;28;20480;-69
2022/12/29 12:24:49;;;;;;;5.05;3.95;;;22.30;34.20;;;;;;5073871;28;20559;-70
2022/12/29 12:27:39;;;;;;;4.70;4.05;;;22.30;34.20;;;;;;5074699;28;20174;-70
2022/12/29 12:30:22;;;;;;;3.92;3.35;;;22.30;34.20;;;;;;5073501;28;20049;-69
2022/12/29 12:33:03;;;;;;;6.82;4.03;;;22.30;34.30;;;;;;5073568;28;20460;-70
2022/12/29 12:36:10;;;;;;;4.22;3.80;;;22.30;34.30;;;;;;5074099;28;20059;-69
2022/12/29 12:38:57;;;;;;;4.78;3.30;;;22.30;34.30;;;;;;5059109;28;20048;-70
2022/12/29 12:41:52;;;;;;;4.18;3.40;;;22.30;34.40;;;;;;5050658;28;20072;-69
2022/12/29 12:44:31;;;;;;;6.90;3.55;;;22.30;34.40;;;;;;5067699;28;20487;-70
2022/12/29 12:47:25;;;;;;;4.22;3.28;;;22.20;34.40;;;;;;5054917;28;20049;-69
2022/12/29 12:50:19;;;;;;;4.45;3.45;;;22.30;34.60;;;;;;5055606;28;20059;-70
2022/12/29 12:53:24;;;;;;;4.25;3.60;;;22.30;34.60;;;;;;5043596;28;20083;-70
2022/12/29 12:56:20;;;;;;;3.97;3.40;;;22.30;34.60;;;;;;5052708;28;20048;-69
2022/12/29 12:58:59;;;;;;;4.50;3.53;;;22.20;34.50;;;;;;5057481;28;20080;-69
2022/12/29 13:02:01;;;;;;;3.78;3.33;;;22.30;34.60;;;;;;5052812;28;20488;-69
2022/12/29 13:05:03;;;;;;;3.40;3.10;;;22.30;34.60;;;;;;5053151;28;20049;-69
2022/12/29 13:07:44;;;;;;;4.40;3.30;;;22.30;34.70;;;;;;5056392;28;20048;-69
2022/12/29 13:10:51;;;;;;;4.15;3.17;;;22.20;34.60;;;;;;5071669;28;20055;-69
2022/12/29 13:13:47;;;;;;;5.25;3.80;;;22.30;34.70;;;;;;5066785;28;20044;-70
2022/12/29 13:16:43;;;;;;;3.90;3.20;;;22.20;35.30;;;;;;5070803;28;20040;-69
2022/12/29 13:19:37;;;;;;;3.90;3.50;;;22.20;34.80;;;;;;5055609;28;20049;-69
2022/12/29 13:22:39;;;;;;;6.43;3.63;;;22.20;34.80;;;;;;5073263;28;20048;-69
2022/12/29 13:25:42;;;;;;;4.32;3.30;;;22.20;34.90;;;;;;5073321;28;20044;-69
2022/12/29 13:28:28;;;;;;;4.25;3.28;;;22.20;34.80;;;;;;5073089;28;20048;-69
2022/12/29 13:31:23;;;;;;;5.03;4.00;;;22.20;34.90;;;;;;5065535;28;20583;-69
2022/12/29 13:34:19;;;;;;;3.72;3.05;;;22.20;34.90;;;;;;5062203;28;20041;-69
2022/12/29 13:36:58;;;;;;;6.47;3.70;;;22.20;35.00;;;;;;5064084;28;20070;-69
2022/12/29 13:39:37;;;;;;;3.42;2.92;;;22.20;35.00;;;;;;5063669;28;20549;-68
2022/12/29 13:42:05;;;;;;;3.90;3.13;;;22.20;35.00;;;;;;5063691;28;20040;-69
2022/12/29 13:44:47;;;;;;;3.67;3.17;;;22.20;35.10;;;;;;5062185;28;20497;-69
2022/12/29 13:47:32;;;;;;;3.97;3.00;;;22.20;35.10;;;;;;5052853;28;20135;-69
2022/12/29 13:50:03;;;;;;;4.07;2.97;;;22.20;35.10;;;;;;5073014;28;20048;-68
2022/12/29 13:53:09;;;;;;;3.20;2.90;;;22.20;35.20;;;;;;5072558;28;20047;-69
2022/12/29 13:55:49;;;;;;;3.65;3.33;;;22.20;35.20;;;;;;5073011;28;20079;-69